Time;durP1;ratioP1;P1;durP2;ratioP2;P2;SDS_P1;SDS_P2;PMS_P1;PMS_P2;Temp;Humidity;BMP_temperature;BMP_pressure;BME280_temperature;BME280_humidity;BME280_pressure;Samples;Min_cycle;Max_cycle;Signal;HPM_P1;HPM_P2
2021/03/03 00:00:08;;;;;;;0.00;0.00;;;9.50;99.90;;;;;;5071184;28;20427;-72
2021/03/03 00:02:34;;;;;;;0.00;0.00;;;9.40;99.90;;;;;;5071185;28;20415;-72
2021/03/03 00:05:01;;;;;;;0.00;0.00;;;9.40;99.90;;;;;;5071469;28;20473;-72
2021/03/03 00:07:27;;;;;;;0.00;0.00;;;9.30;99.90;;;;;;5071141;28;20411;-71
2021/03/03 00:09:53;;;;;;;0.00;0.00;;;9.30;99.90;;;;;;5071238;28;20403;-71
2021/03/03 00:12:19;;;;;;;0.00;0.00;;;9.30;99.90;;;;;;5070700;28;20441;-72
2021/03/03 00:14:45;;;;;;;0.00;0.00;;;9.30;99.90;;;;;;5071051;28;20423;-72
2021/03/03 00:17:12;;;;;;;0.00;0.00;;;9.30;99.90;;;;;;5071402;28;20411;-72
2021/03/03 00:19:38;;;;;;;0.00;0.00;;;9.20;99.90;;;;;;5073229;28;20839;-72
2021/03/03 00:22:05;;;;;;;0.00;0.00;;;9.20;99.90;;;;;;5075523;28;20808;-73
2021/03/03 00:24:31;;;;;;;0.00;0.00;;;9.20;99.90;;;;;;5072587;28;20407;-72
2021/03/03 00:26:57;;;;;;;0.00;0.00;;;9.20;99.90;;;;;;5072792;28;20412;-74
2021/03/03 00:29:23;;;;;;;0.00;0.00;;;9.30;99.90;;;;;;5074925;28;20426;-72
2021/03/03 00:31:49;;;;;;;0.00;0.00;;;9.30;99.90;;;;;;5074044;28;20408;-72
2021/03/03 00:34:16;;;;;;;0.00;0.00;;;9.20;99.90;;;;;;5072570;28;20785;-72
2021/03/03 00:36:42;;;;;;;0.00;0.00;;;9.20;99.90;;;;;;5072894;28;20480;-72
2021/03/03 00:39:09;;;;;;;0.00;0.00;;;9.20;99.90;;;;;;5071376;28;20420;-72
2021/03/03 00:41:35;;;;;;;0.00;0.00;;;9.20;99.90;;;;;;5070468;28;20423;-72
2021/03/03 00:44:01;;;;;;;0.00;0.00;;;9.30;99.90;;;;;;5070970;28;20418;-72
2021/03/03 00:46:27;;;;;;;0.00;0.00;;;9.20;99.90;;;;;;5070662;28;20415;-71
2021/03/03 00:48:53;;;;;;;0.00;0.00;;;9.20;99.90;;;;;;5071053;28;20416;-72
2021/03/03 00:51:20;;;;;;;0.00;0.00;;;9.20;99.90;;;;;;5070990;28;20868;-71
2021/03/03 00:53:46;;;;;;;0.00;0.00;;;9.20;99.90;;;;;;5070402;28;20423;-71
2021/03/03 00:56:13;;;;;;;0.00;0.00;;;9.10;99.90;;;;;;5070653;28;20419;-71
2021/03/03 00:58:40;;;;;;;0.00;0.00;;;9.20;99.90;;;;;;5070687;28;20411;-71
2021/03/03 01:01:06;;;;;;;0.00;0.00;;;9.20;99.90;;;;;;5070719;28;20426;-72
2021/03/03 01:03:32;;;;;;;0.00;0.00;;;9.20;99.90;;;;;;5070240;28;20415;-71
2021/03/03 01:05:58;;;;;;;0.00;0.00;;;9.20;99.90;;;;;;5073331;28;20411;-71
2021/03/03 01:08:24;;;;;;;0.00;0.00;;;9.20;99.90;;;;;;5074660;28;20465;-71
2021/03/03 01:10:50;;;;;;;0.00;0.00;;;9.20;99.90;;;;;;5074306;28;20408;-71
2021/03/03 01:13:17;;;;;;;0.00;0.00;;;9.20;99.90;;;;;;5074288;28;20411;-71
2021/03/03 01:15:44;;;;;;;0.00;0.00;;;9.20;99.90;;;;;;5074182;28;20411;-72
2021/03/03 01:18:10;;;;;;;0.00;0.00;;;9.20;99.90;;;;;;5074485;28;20411;-72
2021/03/03 01:20:36;;;;;;;0.00;0.00;;;9.20;99.90;;;;;;5074147;28;20423;-72
2021/03/03 01:23:02;;;;;;;0.00;0.00;;;9.20;99.90;;;;;;5074096;28;20415;-71
2021/03/03 01:25:29;;;;;;;0.00;0.00;;;9.20;99.90;;;;;;5074277;28;20415;-71
2021/03/03 01:27:55;;;;;;;0.00;0.00;;;9.20;99.90;;;;;;5073870;28;20785;-71
2021/03/03 01:30:22;;;;;;;0.00;0.00;;;9.10;99.90;;;;;;5074411;28;20887;-71
2021/03/03 01:32:48;;;;;;;0.00;0.00;;;9.10;99.90;;;;;;5073689;28;20419;-72
2021/03/03 01:35:15;;;;;;;0.00;0.00;;;9.00;99.90;;;;;;5074252;28;20411;-71
2021/03/03 01:37:41;;;;;;;0.00;0.00;;;9.10;99.90;;;;;;5073968;28;20418;-72
2021/03/03 01:40:09;;;;;;;0.00;0.00;;;9.10;99.90;;;;;;5074020;28;20485;-71
2021/03/03 01:42:35;;;;;;;0.00;0.00;;;9.10;99.90;;;;;;5073908;28;20418;-71
2021/03/03 01:45:02;;;;;;;0.00;0.00;;;9.10;99.90;;;;;;5073975;28;20411;-71
2021/03/03 01:47:29;;;;;;;0.00;0.00;;;9.10;99.90;;;;;;5073641;28;20907;-72
2021/03/03 01:49:56;;;;;;;0.00;0.00;;;9.10;99.90;;;;;;5073508;28;20408;-72
2021/03/03 01:52:23;;;;;;;0.00;0.00;;;9.20;99.90;;;;;;5073722;28;20469;-72
2021/03/03 01:54:49;;;;;;;0.00;0.00;;;9.20;99.90;;;;;;5073535;28;20412;-72
2021/03/03 01:57:16;;;;;;;0.00;0.00;;;9.20;99.90;;;;;;5073723;28;20419;-72
2021/03/03 01:59:42;;;;;;;0.00;0.00;;;9.20;99.90;;;;;;5073440;28;20412;-73
2021/03/03 02:02:09;;;;;;;0.00;0.00;;;9.20;99.90;;;;;;5073409;28;20506;-72
2021/03/03 02:04:37;;;;;;;0.00;0.00;;;9.20;99.90;;;;;;5073281;28;20415;-72
2021/03/03 02:07:10;;;;;;;0.00;0.00;;;9.20;99.90;;;;;;5073220;28;20923;-72
2021/03/03 02:09:49;;;;;;;0.00;0.00;;;9.20;99.90;;;;;;5073532;28;20884;-71
2021/03/03 02:12:19;;;;;;;0.00;0.00;;;9.10;99.90;;;;;;5073319;28;20411;-72
2021/03/03 02:14:51;;;;;;;0.00;0.00;;;9.10;99.90;;;;;;5072861;28;20423;-72
2021/03/03 02:17:19;;;;;;;0.00;0.00;;;9.20;99.90;;;;;;5072176;28;20451;-72
2021/03/03 02:19:48;;;;;;;0.00;0.00;;;9.20;99.90;;;;;;5072777;28;20442;-71
2021/03/03 02:22:20;;;;;;;0.00;0.00;;;9.10;99.90;;;;;;5073376;28;20788;-71
2021/03/03 02:24:51;;;;;;;0.00;0.00;;;9.00;99.90;;;;;;5072650;28;20850;-72
2021/03/03 02:27:20;;;;;;;0.00;0.00;;;9.10;99.90;;;;;;5073332;28;20469;-72
2021/03/03 02:29:47;;;;;;;0.00;0.00;;;9.10;99.90;;;;;;5072744;28;20426;-72
2021/03/03 02:32:15;;;;;;;0.00;0.00;;;9.10;99.90;;;;;;5072935;28;20442;-72
2021/03/03 02:34:41;;;;;;;0.00;0.00;;;9.10;99.90;;;;;;5072911;28;20803;-72
2021/03/03 02:37:08;;;;;;;0.00;0.00;;;9.10;99.90;;;;;;5072973;28;20426;-72
2021/03/03 02:39:35;;;;;;;0.00;0.00;;;9.00;99.90;;;;;;5073182;28;20412;-72
2021/03/03 02:42:02;;;;;;;0.00;0.00;;;9.00;99.90;;;;;;5072508;28;21163;-72
2021/03/03 02:44:32;;;;;;;0.00;0.00;;;9.00;99.90;;;;;;5072409;28;20468;-72
2021/03/03 02:46:58;;;;;;;0.00;0.00;;;8.90;99.90;;;;;;5072950;28;20420;-72
2021/03/03 02:49:25;;;;;;;0.00;0.00;;;8.90;99.90;;;;;;5072489;28;20408;-72
2021/03/03 02:51:51;;;;;;;0.00;0.00;;;8.90;99.90;;;;;;5072765;28;20410;-72
2021/03/03 02:54:17;;;;;;;0.00;0.00;;;8.80;99.90;;;;;;5072199;28;20472;-72
2021/03/03 02:56:45;;;;;;;0.00;0.00;;;8.70;99.90;;;;;;5072493;28;20415;-73
2021/03/03 02:59:20;;;;;;;0.00;0.00;;;8.70;99.90;;;;;;5072242;28;20423;-72
2021/03/03 03:01:52;;;;;;;0.00;0.00;;;8.70;99.90;;;;;;5072630;28;20431;-72
2021/03/03 03:04:20;;;;;;;0.00;0.00;;;8.80;99.90;;;;;;5072122;28;20750;-72
2021/03/03 03:06:47;;;;;;;0.00;0.00;;;8.80;99.90;;;;;;5072357;28;20452;-73
2021/03/03 03:09:16;;;;;;;0.00;0.00;;;8.80;99.90;;;;;;5072319;28;20469;-72
2021/03/03 03:11:47;;;;;;;0.00;0.00;;;8.80;99.90;;;;;;5071982;28;20416;-73
2021/03/03 03:14:15;;;;;;;0.00;0.00;;;8.80;99.90;;;;;;5071894;28;20446;-73
2021/03/03 03:16:44;;;;;;;0.00;0.00;;;8.90;99.90;;;;;;5072031;28;20490;-72
2021/03/03 03:19:15;;;;;;;0.00;0.00;;;8.90;99.90;;;;;;5072068;28;20494;-74
2021/03/03 03:21:45;;;;;;;0.00;0.00;;;8.90;99.90;;;;;;5071836;28;20427;-74
2021/03/03 03:24:15;;;;;;;0.00;0.00;;;8.80;99.90;;;;;;5071457;28;20930;-72
2021/03/03 03:26:42;;;;;;;0.00;0.00;;;8.80;99.90;;;;;;5072265;28;20411;-73
2021/03/03 03:29:09;;;;;;;0.00;0.00;;;8.90;99.90;;;;;;5071680;28;20419;-72
2021/03/03 03:31:38;;;;;;;0.00;0.00;;;8.80;99.90;;;;;;5071930;28;20412;-72
2021/03/03 03:34:05;;;;;;;0.00;0.00;;;8.80;99.90;;;;;;5071406;28;20415;-72
2021/03/03 03:36:34;;;;;;;0.00;0.00;;;8.70;99.90;;;;;;5071619;28;20907;-72
2021/03/03 03:39:01;;;;;;;0.00;0.00;;;8.70;99.90;;;;;;5071705;28;20887;-73
2021/03/03 03:41:29;;;;;;;0.00;0.00;;;8.70;99.90;;;;;;5071838;28;20419;-72
2021/03/03 03:43:58;;;;;;;0.00;0.00;;;8.80;99.90;;;;;;5071442;28;20411;-72
2021/03/03 03:46:24;;;;;;;0.00;0.00;;;8.70;99.90;;;;;;5071499;28;20415;-75
2021/03/03 03:48:51;;;;;;;0.00;0.00;;;8.60;99.90;;;;;;5071544;28;20416;-71
2021/03/03 03:51:17;;;;;;;0.00;0.00;;;8.60;99.90;;;;;;5071188;28;20812;-73
2021/03/03 03:53:45;;;;;;;0.00;0.00;;;8.60;99.90;;;;;;5071314;28;20407;-72
2021/03/03 03:56:11;;;;;;;0.00;0.00;;;8.60;99.90;;;;;;5071545;28;20412;-71
2021/03/03 03:58:37;;;;;;;0.00;0.00;;;8.60;99.90;;;;;;5071343;28;20415;-72
2021/03/03 04:01:03;;;;;;;0.00;0.00;;;8.60;99.90;;;;;;5071377;28;20424;-73
2021/03/03 04:03:31;;;;;;;0.00;0.00;;;8.60;99.90;;;;;;5070802;28;20431;-72
2021/03/03 04:05:57;;;;;;;0.00;0.00;;;8.60;99.90;;;;;;5071609;28;20421;-71
2021/03/03 04:08:23;;;;;;;0.00;0.00;;;8.70;99.90;;;;;;5071020;28;20415;-71
2021/03/03 04:10:50;;;;;;;0.00;0.00;;;8.60;99.90;;;;;;5071359;28;20410;-71
2021/03/03 04:13:16;;;;;;;0.00;0.00;;;8.60;99.90;;;;;;5071048;28;20456;-72
2021/03/03 04:15:42;;;;;;;0.00;0.00;;;8.60;99.90;;;;;;5071493;28;20465;-72
2021/03/03 04:18:09;;;;;;;0.00;0.00;;;8.70;99.90;;;;;;5071226;28;20487;-72
2021/03/03 04:20:36;;;;;;;0.00;0.00;;;8.70;99.90;;;;;;5071894;28;20431;-71
2021/03/03 04:23:02;;;;;;;0.00;0.00;;;8.70;99.90;;;;;;5079947;28;20411;-73
2021/03/03 04:25:28;;;;;;;0.00;0.00;;;8.70;99.90;;;;;;5076125;28;20411;-72
2021/03/03 04:27:55;;;;;;;0.00;0.00;;;8.80;99.90;;;;;;5071505;28;20429;-72
2021/03/03 04:30:23;;;;;;;0.00;0.00;;;8.70;99.90;;;;;;5074350;28;20416;-72
2021/03/03 04:32:49;;;;;;;0.00;0.00;;;8.70;99.90;;;;;;5074915;28;20411;-72
2021/03/03 04:35:15;;;;;;;0.00;0.00;;;8.70;99.90;;;;;;5075336;28;20484;-72
2021/03/03 04:37:41;;;;;;;0.00;0.00;;;8.60;99.90;;;;;;5071016;28;20488;-72
2021/03/03 04:40:10;;;;;;;0.00;0.00;;;8.60;99.90;;;;;;5070470;28;20412;-72
2021/03/03 04:42:37;;;;;;;0.00;0.00;;;8.70;99.90;;;;;;5070874;28;20465;-72
2021/03/03 04:45:05;;;;;;;0.00;0.00;;;8.70;99.90;;;;;;5070659;28;20461;-72
2021/03/03 04:47:31;;;;;;;0.00;0.00;;;8.70;99.90;;;;;;5070557;28;20422;-72
2021/03/03 04:49:57;;;;;;;0.00;0.00;;;8.60;99.90;;;;;;5070646;28;21033;-72
2021/03/03 04:52:24;;;;;;;0.00;0.00;;;8.60;99.90;;;;;;5070993;28;20812;-72
2021/03/03 04:54:50;;;;;;;0.00;0.00;;;8.70;99.90;;;;;;5070269;28;20777;-71
2021/03/03 04:57:16;;;;;;;0.00;0.00;;;8.70;99.90;;;;;;5071006;28;20416;-72
2021/03/03 04:59:42;;;;;;;0.00;0.00;;;8.70;99.90;;;;;;5070556;28;20415;-72
2021/03/03 05:02:09;;;;;;;0.00;0.00;;;8.70;99.90;;;;;;5070550;28;20485;-72
2021/03/03 05:04:35;;;;;;;0.00;0.00;;;8.70;99.90;;;;;;5070672;28;20419;-73
2021/03/03 05:07:01;;;;;;;0.00;0.00;;;8.80;99.90;;;;;;5070462;28;20800;-72
2021/03/03 05:09:28;;;;;;;0.00;0.00;;;8.80;99.90;;;;;;5070661;28;20445;-72
2021/03/03 05:11:54;;;;;;;0.00;0.00;;;8.80;99.90;;;;;;5070510;28;20403;-72
2021/03/03 05:14:20;;;;;;;0.00;0.00;;;8.70;99.90;;;;;;5070207;28;20416;-72
2021/03/03 05:16:46;;;;;;;0.00;0.00;;;8.80;99.90;;;;;;5070451;28;20783;-72
2021/03/03 05:19:13;;;;;;;0.00;0.00;;;8.80;99.90;;;;;;5067947;28;20757;-72
2021/03/03 05:21:39;;;;;;;0.00;0.00;;;8.70;99.90;;;;;;5070379;28;20431;-73
2021/03/03 05:24:06;;;;;;;0.00;0.00;;;8.80;99.90;;;;;;5069964;28;20799;-73
2021/03/03 05:26:32;;;;;;;0.00;0.00;;;8.80;99.90;;;;;;5070279;28;20453;-72
2021/03/03 05:28:58;;;;;;;0.00;0.00;;;8.80;99.90;;;;;;5070052;28;20411;-72
2021/03/03 05:31:25;;;;;;;0.00;0.00;;;8.80;99.90;;;;;;5070412;28;20412;-71
2021/03/03 05:33:51;;;;;;;0.00;0.00;;;8.90;99.90;;;;;;5070089;28;20414;-72
2021/03/03 05:36:18;;;;;;;0.00;0.00;;;8.90;99.90;;;;;;5070235;28;20457;-72
2021/03/03 05:38:44;;;;;;;0.00;0.00;;;8.90;99.90;;;;;;5070156;28;20945;-73
2021/03/03 05:41:10;;;;;;;0.00;0.00;;;9.00;99.90;;;;;;5069993;28;20427;-73
2021/03/03 05:43:37;;;;;;;0.00;0.00;;;8.90;99.90;;;;;;5069980;28;20908;-73
2021/03/03 05:46:05;;;;;;;0.00;0.00;;;8.90;99.90;;;;;;5070522;28;20494;-73
2021/03/03 05:48:32;;;;;;;0.00;0.00;;;8.90;99.90;;;;;;5070654;28;20426;-73
2021/03/03 05:51:00;;;;;;;0.00;0.00;;;8.90;99.90;;;;;;5070336;28;20433;-73
2021/03/03 05:53:28;;;;;;;0.00;0.00;;;8.90;99.90;;;;;;5073278;28;20416;-73
2021/03/03 05:55:55;;;;;;;0.00;0.00;;;8.90;99.90;;;;;;5073810;28;20422;-73
2021/03/03 05:58:23;;;;;;;0.00;0.00;;;8.90;99.90;;;;;;5073661;28;20424;-73
2021/03/03 06:00:50;;;;;;;0.00;0.00;;;8.90;99.90;;;;;;5073901;28;20814;-73
2021/03/03 06:03:17;;;;;;;0.00;0.00;;;8.90;99.90;;;;;;5073277;28;20411;-73
2021/03/03 06:05:47;;;;;;;0.00;0.00;;;8.90;99.90;;;;;;5073487;28;20896;-73
2021/03/03 06:08:13;;;;;;;0.00;0.00;;;8.90;99.90;;;;;;5073436;28;20415;-72
2021/03/03 06:10:41;;;;;;;0.00;0.00;;;8.90;99.90;;;;;;5073315;28;20426;-73
2021/03/03 06:13:07;;;;;;;0.00;0.00;;;8.90;99.90;;;;;;5073243;28;20442;-73
2021/03/03 06:15:33;;;;;;;0.00;0.00;;;9.00;99.90;;;;;;5073058;28;20946;-72
2021/03/03 06:17:59;;;;;;;0.00;0.00;;;9.00;99.90;;;;;;5073649;28;20502;-72
2021/03/03 06:20:26;;;;;;;0.00;0.00;;;9.00;99.90;;;;;;5073201;28;20762;-73
2021/03/03 06:22:52;;;;;;;0.00;0.00;;;9.00;99.90;;;;;;5073072;28;20428;-73
2021/03/03 06:25:20;;;;;;;0.00;0.00;;;9.00;99.90;;;;;;5073147;28;20415;-73
2021/03/03 06:27:47;;;;;;;0.00;0.00;;;9.00;99.90;;;;;;5073202;28;20473;-73
2021/03/03 06:30:15;;;;;;;0.00;0.00;;;9.00;99.90;;;;;;5073368;28;20515;-73
2021/03/03 06:32:53;;;;;;;0.00;0.00;;;8.90;99.90;;;;;;5073054;28;20469;-73
2021/03/03 06:35:20;;;;;;;0.00;0.00;;;8.90;99.90;;;;;;5072949;28;20416;-73
2021/03/03 06:37:53;;;;;;;0.00;0.00;;;8.90;99.90;;;;;;5072497;28;20490;-72
2021/03/03 06:40:20;;;;;;;0.00;0.00;;;8.90;99.90;;;;;;5073026;28;20502;-72
2021/03/03 06:42:47;;;;;;;0.00;0.00;;;8.90;99.90;;;;;;5072652;28;20411;-72
2021/03/03 06:45:26;;;;;;;0.00;0.00;;;9.00;99.90;;;;;;5072753;28;20411;-72
2021/03/03 06:47:52;;;;;;;0.00;0.00;;;9.00;99.90;;;;;;5072589;28;20424;-72
2021/03/03 06:50:20;;;;;;;0.00;0.00;;;9.00;99.90;;;;;;5072517;28;20415;-72
2021/03/03 06:52:46;;;;;;;0.00;0.00;;;9.00;99.90;;;;;;5073031;28;20498;-72
2021/03/03 06:55:13;;;;;;;0.00;0.00;;;9.10;99.90;;;;;;5072332;28;20415;-72
2021/03/03 06:57:39;;;;;;;0.00;0.00;;;9.10;99.90;;;;;;5072597;28;20472;-72
2021/03/03 07:00:10;;;;;;;0.00;0.00;;;9.10;99.90;;;;;;5072355;28;21101;-72
2021/03/03 07:02:38;;;;;;;0.00;0.00;;;9.20;99.90;;;;;;5072074;28;20904;-72
2021/03/03 07:05:05;;;;;;;0.00;0.00;;;9.20;99.90;;;;;;5071848;28;20502;-72
2021/03/03 07:07:31;;;;;;;0.00;0.00;;;9.30;99.90;;;;;;5072611;28;20423;-72
2021/03/03 07:09:59;;;;;;;0.00;0.00;;;9.30;99.90;;;;;;5072312;28;20407;-72
2021/03/03 07:12:27;;;;;;;0.00;0.00;;;9.30;99.90;;;;;;5072718;28;20407;-71
2021/03/03 07:14:58;;;;;;;0.00;0.00;;;9.30;99.90;;;;;;5072163;28;20426;-72
2021/03/03 07:17:32;;;;;;;0.00;0.00;;;9.40;99.90;;;;;;5072139;28;20408;-72
2021/03/03 07:20:00;;;;;;;0.00;0.00;;;9.40;99.90;;;;;;5072221;28;20416;-72
2021/03/03 07:22:31;;;;;;;0.00;0.00;;;9.50;99.90;;;;;;5071639;28;20420;-72
2021/03/03 07:25:00;;;;;;;0.00;0.00;;;9.50;99.90;;;;;;5071802;28;20945;-72
2021/03/03 07:27:26;;;;;;;0.00;0.00;;;9.60;99.90;;;;;;5071656;28;20477;-72
2021/03/03 07:29:54;;;;;;;0.00;0.00;;;9.70;99.90;;;;;;5071641;28;20411;-72
2021/03/03 07:32:21;;;;;;;0.00;0.00;;;9.70;99.90;;;;;;5071844;28;20410;-72
2021/03/03 07:34:50;;;;;;;0.00;0.00;;;9.70;99.90;;;;;;5071496;28;20423;-72
2021/03/03 07:37:18;;;;;;;0.00;0.00;;;9.80;99.90;;;;;;5071722;28;20574;-72
2021/03/03 07:39:48;;;;;;;0.00;0.00;;;9.80;99.90;;;;;;5071303;28;20953;-72
2021/03/03 07:42:19;;;;;;;0.00;0.00;;;9.90;99.90;;;;;;5071538;28;20427;-73
2021/03/03 07:44:47;;;;;;;0.00;0.00;;;9.90;99.90;;;;;;5071361;28;20426;-72
2021/03/03 07:47:15;;;;;;;0.00;0.00;;;9.90;99.90;;;;;;5072073;28;20450;-72
2021/03/03 07:49:42;;;;;;;0.00;0.00;;;9.90;99.90;;;;;;5072133;28;20454;-73
2021/03/03 07:52:10;;;;;;;0.00;0.00;;;9.90;99.90;;;;;;5071929;28;20416;-72
2021/03/03 07:54:37;;;;;;;0.00;0.00;;;9.90;99.90;;;;;;5070999;28;20428;-72
2021/03/03 07:57:04;;;;;;;0.00;0.00;;;10.00;99.90;;;;;;5071419;28;20411;-72
2021/03/03 07:59:31;;;;;;;0.00;0.00;;;10.10;99.90;;;;;;5071409;28;20411;-72
2021/03/03 08:01:57;;;;;;;0.00;0.00;;;10.10;99.90;;;;;;5071396;28;20423;-72
2021/03/03 08:04:38;;;;;;;0.00;0.00;;;10.10;99.90;;;;;;5070916;28;20449;-72
2021/03/03 08:07:19;;;;;;;0.00;0.00;;;10.20;99.90;;;;;;5071284;28;20415;-72
2021/03/03 08:10:25;;;;;;;0.00;0.00;;;10.30;99.90;;;;;;5071090;28;20833;-72
2021/03/03 08:13:03;;;;;;;0.00;0.00;;;10.40;99.90;;;;;;5071389;28;20423;-72
2021/03/03 08:15:34;;;;;;;0.00;0.00;;;10.50;99.90;;;;;;5070190;28;20423;-72
2021/03/03 08:18:24;;;;;;;0.00;0.00;;;10.70;99.90;;;;;;5070860;28;20466;-72
2021/03/03 08:20:51;;;;;;;0.00;0.00;;;10.80;99.90;;;;;;5071011;28;20415;-73
2021/03/03 08:23:41;;;;;;;0.00;0.00;;;10.90;99.90;;;;;;5071083;28;20980;-73
2021/03/03 08:26:11;;;;;;;0.00;0.00;;;11.10;99.90;;;;;;5071215;28;20419;-73
2021/03/03 08:28:38;;;;;;;0.00;0.00;;;11.10;99.90;;;;;;5072053;28;20427;-73
2021/03/03 08:31:35;;;;;;;0.00;0.00;;;11.20;99.90;;;;;;5072668;28;20408;-73
2021/03/03 08:34:06;;;;;;;0.00;0.00;;;11.20;99.90;;;;;;5071538;28;20411;-73
2021/03/03 08:36:56;;;;;;;0.00;0.00;;;11.10;99.90;;;;;;5071159;28;20461;-72
2021/03/03 08:39:34;;;;;;;0.00;0.00;;;11.00;99.90;;;;;;5071484;28;20407;-73
2021/03/03 08:42:03;;;;;;;0.00;0.00;;;11.00;99.90;;;;;;5071626;28;20431;-73
2021/03/03 08:44:29;;;;;;;0.00;0.00;;;11.00;99.90;;;;;;5070560;28;20458;-73
2021/03/03 08:46:56;;;;;;;0.00;0.00;;;11.00;99.90;;;;;;5071047;28;20415;-73
2021/03/03 08:49:30;;;;;;;0.00;0.00;;;11.10;99.90;;;;;;5070477;28;20419;-72
2021/03/03 08:52:13;;;;;;;0.00;0.00;;;11.20;99.90;;;;;;5070900;28;20415;-72
2021/03/03 08:54:49;;;;;;;0.00;0.00;;;11.30;99.90;;;;;;5070256;28;20415;-72
2021/03/03 08:57:33;;;;;;;0.00;0.00;;;11.30;99.90;;;;;;5070769;28;20427;-72
2021/03/03 09:00:00;;;;;;;0.00;0.00;;;11.40;99.90;;;;;;5070715;28;20415;-72
2021/03/03 09:02:40;;;;;;;0.00;0.00;;;11.50;99.90;;;;;;5070715;28;20423;-72
2021/03/03 09:05:12;;;;;;;0.00;0.00;;;11.70;99.90;;;;;;5070402;28;20415;-72
2021/03/03 09:07:39;;;;;;;0.00;0.00;;;11.70;99.90;;;;;;5070458;28;20900;-73
2021/03/03 09:10:10;;;;;;;0.00;0.00;;;11.90;99.90;;;;;;5070485;28;20445;-73
2021/03/03 09:12:40;;;;;;;0.00;0.00;;;11.90;99.90;;;;;;5070794;28;20408;-73
2021/03/03 09:15:09;;;;;;;0.00;0.00;;;12.00;99.90;;;;;;5070245;28;20449;-73
2021/03/03 09:17:37;;;;;;;0.00;0.00;;;12.20;99.90;;;;;;5070490;28;20411;-73
2021/03/03 09:20:06;;;;;;;0.00;0.00;;;12.50;99.90;;;;;;5070564;28;20416;-73
2021/03/03 09:22:38;;;;;;;0.00;0.00;;;12.70;99.90;;;;;;5070168;28;20498;-73
2021/03/03 09:25:07;;;;;;;0.00;0.00;;;12.90;99.90;;;;;;5070511;28;20426;-73
2021/03/03 09:27:34;;;;;;;0.00;0.00;;;13.00;99.90;;;;;;5073514;28;20938;-73
2021/03/03 09:30:03;;;;;;;0.00;0.00;;;13.00;99.90;;;;;;5074313;28;20818;-73
2021/03/03 09:32:29;;;;;;;0.00;0.00;;;13.10;99.90;;;;;;5073969;28;20463;-73
2021/03/03 09:35:01;;;;;;;0.00;0.00;;;13.20;99.90;;;;;;5073946;28;20899;-73
2021/03/03 09:37:36;;;;;;;0.00;0.00;;;13.20;99.90;;;;;;5074642;28;21080;-73
2021/03/03 09:40:04;;;;;;;0.00;0.00;;;13.20;99.90;;;;;;5074460;28;20423;-73
2021/03/03 09:42:38;;;;;;;0.00;0.00;;;13.30;99.90;;;;;;5074021;28;20427;-73
2021/03/03 09:45:07;;;;;;;0.00;0.00;;;13.40;99.90;;;;;;5073561;28;20925;-73
2021/03/03 09:47:35;;;;;;;0.00;0.00;;;13.50;99.90;;;;;;5073672;28;20415;-73
2021/03/03 09:50:05;;;;;;;0.00;0.00;;;13.50;99.90;;;;;;5073837;28;20415;-73
2021/03/03 09:52:37;;;;;;;0.00;0.00;;;13.60;99.90;;;;;;5074283;28;20474;-73
2021/03/03 09:55:06;;;;;;;0.00;0.00;;;13.60;99.90;;;;;;5074932;28;20464;-73
2021/03/03 09:57:33;;;;;;;0.00;0.00;;;13.70;99.90;;;;;;5073823;28;20422;-73
2021/03/03 09:59:59;;;;;;;0.00;0.00;;;13.80;99.90;;;;;;5073621;28;20886;-73
2021/03/03 10:02:28;;;;;;;0.00;0.00;;;13.80;99.90;;;;;;5073920;28;20439;-73
2021/03/03 10:04:55;;;;;;;0.00;0.00;;;13.80;99.90;;;;;;5073452;28;20782;-73
2021/03/03 10:07:23;;;;;;;0.00;0.00;;;14.00;99.90;;;;;;5073262;28;20888;-73
2021/03/03 10:09:52;;;;;;;0.00;0.00;;;14.10;99.90;;;;;;5073469;28;20451;-73
2021/03/03 10:12:21;;;;;;;0.00;0.00;;;14.00;99.90;;;;;;5073322;28;20430;-73
2021/03/03 10:14:58;;;;;;;0.00;0.00;;;14.10;99.90;;;;;;5073187;28;20473;-73
2021/03/03 10:17:38;;;;;;;0.00;0.00;;;14.10;99.90;;;;;;5073228;28;20411;-73
2021/03/03 10:20:08;;;;;;;0.00;0.00;;;14.20;99.90;;;;;;5073475;28;20451;-73
2021/03/03 10:22:35;;;;;;;0.00;0.00;;;14.10;99.90;;;;;;5072634;28;20477;-73
2021/03/03 10:25:05;;;;;;;0.00;0.00;;;14.10;99.90;;;;;;5072399;28;20411;-73
2021/03/03 10:27:40;;;;;;;0.00;0.00;;;14.30;99.90;;;;;;5073024;28;20418;-73
2021/03/03 10:30:24;;;;;;;0.00;0.00;;;14.40;99.90;;;;;;5073212;28;20769;-73
2021/03/03 10:32:53;;;;;;;0.00;0.00;;;14.60;99.90;;;;;;5073181;28;20404;-73
2021/03/03 10:35:19;;;;;;;0.00;0.00;;;14.80;99.90;;;;;;5072520;28;20491;-73
2021/03/03 10:37:45;;;;;;;0.00;0.00;;;14.80;99.90;;;;;;5072353;28;20416;-73
2021/03/03 10:40:14;;;;;;;0.00;0.00;;;14.70;99.90;;;;;;5072203;28;20422;-73
2021/03/03 10:42:40;;;;;;;0.00;0.00;;;14.70;99.90;;;;;;5072617;28;20427;-73
2021/03/03 10:45:17;;;;;;;0.00;0.00;;;14.90;99.90;;;;;;5072358;28;20420;-74
2021/03/03 10:47:48;;;;;;;0.00;0.00;;;15.10;99.90;;;;;;5072838;28;20896;-73
2021/03/03 10:50:14;;;;;;;0.00;0.00;;;14.90;99.90;;;;;;5072783;28;20415;-73
2021/03/03 10:52:56;;;;;;;0.00;0.00;;;14.60;99.90;;;;;;5073014;28;20407;-73
2021/03/03 10:55:23;;;;;;;0.00;0.00;;;14.30;99.90;;;;;;5072212;28;20423;-73
2021/03/03 10:58:07;;;;;;;0.00;0.00;;;14.40;99.90;;;;;;5072761;28;20826;-73
2021/03/03 11:00:53;;;;;;;0.00;0.00;;;14.60;99.90;;;;;;5072820;28;20445;-73
2021/03/03 11:03:20;;;;;;;0.00;0.00;;;15.00;99.90;;;;;;5072484;28;20404;-73
2021/03/03 11:05:50;;;;;;;0.00;0.00;;;14.90;99.90;;;;;;5071479;28;20412;-73
2021/03/03 11:08:17;;;;;;;0.00;0.00;;;14.90;99.90;;;;;;5072743;28;20896;-73
2021/03/03 11:10:43;;;;;;;0.00;0.00;;;15.10;99.90;;;;;;5073058;28;20422;-73
2021/03/03 11:13:09;;;;;;;0.00;0.00;;;15.10;99.90;;;;;;5072466;28;20807;-73
2021/03/03 11:15:35;;;;;;;0.00;0.00;;;14.90;99.90;;;;;;5072204;28;20412;-73
2021/03/03 11:18:01;;;;;;;0.00;0.00;;;14.70;99.90;;;;;;5072482;28;20412;-73
2021/03/03 11:20:28;;;;;;;0.00;0.00;;;14.70;99.90;;;;;;5072405;28;20419;-73
2021/03/03 11:22:54;;;;;;;0.00;0.00;;;14.90;99.90;;;;;;5072273;28;20822;-73
2021/03/03 11:25:21;;;;;;;0.00;0.00;;;15.10;99.90;;;;;;5071705;28;20416;-73
2021/03/03 11:27:47;;;;;;;0.00;0.00;;;15.10;99.90;;;;;;5072077;28;20544;-73
2021/03/03 11:30:14;;;;;;;0.00;0.00;;;15.30;99.90;;;;;;5071859;28;20411;-73
2021/03/03 11:32:40;;;;;;;0.00;0.00;;;15.40;99.90;;;;;;5072022;28;20880;-72
2021/03/03 11:35:07;;;;;;;0.00;0.00;;;15.50;99.90;;;;;;5071516;28;20411;-72
2021/03/03 11:37:34;;;;;;;0.00;0.00;;;15.60;99.90;;;;;;5071870;28;20477;-72
2021/03/03 11:40:00;;;;;;;0.00;0.00;;;15.50;99.90;;;;;;5071390;28;20464;-73
2021/03/03 11:42:26;;;;;;;0.00;0.00;;;15.60;99.90;;;;;;5071921;28;20427;-73
2021/03/03 11:44:53;;;;;;;0.00;0.00;;;15.70;99.90;;;;;;5071650;28;20830;-73
2021/03/03 11:47:19;;;;;;;0.00;0.00;;;15.70;99.90;;;;;;5071859;28;20809;-73
2021/03/03 11:49:45;;;;;;;0.00;0.00;;;15.80;99.90;;;;;;5071280;28;20494;-73
2021/03/03 11:52:12;;;;;;;0.00;0.00;;;15.70;99.90;;;;;;5071640;28;20896;-73
2021/03/03 11:54:39;;;;;;;0.00;0.00;;;15.70;99.90;;;;;;5071320;28;20427;-73
2021/03/03 11:57:05;;;;;;;0.00;0.00;;;15.70;99.90;;;;;;5071805;28;20478;-73
2021/03/03 11:59:31;;;;;;;0.00;0.00;;;16.00;99.90;;;;;;5071401;28;20815;-73
2021/03/03 12:01:59;;;;;;;0.00;0.00;;;16.10;99.90;;;;;;5071291;28;20477;-72
2021/03/03 12:04:25;;;;;;;0.00;0.00;;;16.10;99.90;;;;;;5071274;28;20423;-72
2021/03/03 12:06:51;;;;;;;0.00;0.00;;;16.20;99.90;;;;;;5071112;28;20847;-72
2021/03/03 12:09:18;;;;;;;0.00;0.00;;;16.20;99.90;;;;;;5071232;28;20434;-72
2021/03/03 12:11:44;;;;;;;0.00;0.00;;;16.10;99.90;;;;;;5071243;28;20420;-72
2021/03/03 12:14:11;;;;;;;0.00;0.00;;;15.80;99.90;;;;;;5070906;28;20415;-72
2021/03/03 12:16:38;;;;;;;0.00;0.00;;;15.90;99.90;;;;;;5070707;28;21291;-72
2021/03/03 12:19:04;;;;;;;0.00;0.00;;;15.90;99.90;;;;;;5070920;28;20407;-72
2021/03/03 12:21:30;;;;;;;0.00;0.00;;;15.80;99.90;;;;;;5071085;28;20430;-72
2021/03/03 12:23:57;;;;;;;0.00;0.00;;;15.90;99.90;;;;;;5070242;28;20944;-72
2021/03/03 12:26:23;;;;;;;0.00;0.00;;;16.00;99.90;;;;;;5071302;28;20457;-72
2021/03/03 12:28:50;;;;;;;0.00;0.00;;;16.10;99.90;;;;;;5070947;28;20415;-72
2021/03/03 12:31:16;;;;;;;0.00;0.00;;;16.20;99.90;;;;;;5071417;28;20427;-72
2021/03/03 12:33:42;;;;;;;0.00;0.00;;;16.20;99.90;;;;;;5070729;28;20485;-72
2021/03/03 12:36:09;;;;;;;0.00;0.00;;;16.00;99.90;;;;;;5070992;28;20420;-72
2021/03/03 12:38:35;;;;;;;0.00;0.00;;;15.90;99.90;;;;;;5071945;28;20415;-72
2021/03/03 12:41:02;;;;;;;0.00;0.00;;;15.90;99.90;;;;;;5072010;28;20408;-72
2021/03/03 12:43:29;;;;;;;0.00;0.00;;;16.10;99.90;;;;;;5084451;28;20412;-72
2021/03/03 12:45:56;;;;;;;0.00;0.00;;;16.10;99.90;;;;;;5085519;28;20445;-72
2021/03/03 12:48:22;;;;;;;0.00;0.00;;;16.30;99.90;;;;;;5072795;28;20883;-73
2021/03/03 12:50:49;;;;;;;0.00;0.00;;;16.30;99.90;;;;;;5077813;28;20490;-72
2021/03/03 12:53:15;;;;;;;0.00;0.00;;;16.40;99.90;;;;;;5087932;28;20408;-73
2021/03/03 12:55:52;;;;;;;0.00;0.00;;;16.40;99.90;;;;;;5096477;28;20421;-73
2021/03/03 12:58:18;;;;;;;0.00;0.00;;;16.40;99.90;;;;;;5094198;28;20414;-71